createdAt,value
2017-12-02T00:02:13.457Z,24.70
2017-12-02T00:04:40.954Z,25.37
2017-12-02T00:07:08.477Z,24.17
2017-12-02T00:09:35.976Z,27.60
2017-12-02T00:12:03.461Z,28.40
2017-12-02T00:14:30.959Z,25.63
2017-12-02T00:16:58.464Z,26.30
2017-12-02T00:19:25.968Z,26.43
2017-12-02T00:21:53.471Z,33.23
2017-12-02T00:24:20.982Z,42.83
2017-12-02T00:26:48.487Z,28.10
2017-12-02T00:29:15.978Z,31.50
2017-12-02T00:31:43.521Z,51.77
2017-12-02T00:34:11.031Z,33.90
2017-12-02T00:36:38.525Z,26.37
2017-12-02T00:39:06.038Z,79.17
2017-12-02T00:41:33.551Z,62.57
2017-12-02T00:44:01.065Z,32.80
2017-12-02T00:46:28.592Z,31.10
2017-12-02T00:48:56.238Z,26.00
2017-12-02T00:51:23.741Z,29.77
2017-12-02T00:53:51.237Z,25.90
2017-12-02T00:56:19.202Z,27.93
2017-12-02T00:58:46.693Z,29.90
2017-12-02T01:01:14.215Z,36.60
2017-12-02T01:03:41.733Z,33.77
2017-12-02T01:06:09.270Z,31.70
2017-12-02T01:08:36.769Z,26.83
2017-12-02T01:11:04.260Z,27.00
2017-12-02T01:13:31.765Z,24.53
2017-12-02T01:15:59.278Z,23.27
2017-12-02T01:18:26.800Z,23.97
2017-12-02T01:20:54.294Z,27.90
2017-12-02T01:23:21.790Z,26.60
2017-12-02T01:25:49.287Z,35.23
2017-12-02T01:28:16.804Z,45.03
2017-12-02T01:30:44.314Z,47.40
2017-12-02T01:33:11.836Z,38.88
2017-12-02T01:35:39.418Z,37.15
2017-12-02T01:38:06.941Z,31.58
2017-12-02T01:40:34.476Z,29.02
2017-12-02T01:43:02.018Z,38.03
2017-12-02T01:45:29.556Z,37.45
2017-12-02T01:47:57.077Z,33.90
2017-12-02T01:50:24.590Z,31.48
2017-12-02T01:52:52.109Z,39.17
2017-12-02T01:55:19.621Z,42.05
2017-12-02T01:57:47.128Z,42.72
2017-12-02T02:00:14.638Z,36.97
2017-12-02T02:02:42.161Z,30.77
2017-12-02T02:05:09.685Z,40.47
2017-12-02T02:07:37.184Z,32.88
2017-12-02T02:10:04.790Z,34.58
2017-12-02T02:12:32.317Z,54.05
2017-12-02T02:14:59.822Z,38.15
2017-12-02T02:17:27.328Z,31.77
2017-12-02T02:19:54.849Z,32.10
2017-12-02T02:22:22.381Z,30.90
2017-12-02T02:24:49.894Z,32.17
2017-12-02T02:27:17.423Z,29.08
2017-12-02T02:29:44.939Z,23.25
2017-12-02T02:32:12.474Z,29.25
2017-12-02T02:34:40.007Z,25.77
2017-12-02T02:37:07.524Z,25.10
2017-12-02T02:39:35.038Z,23.20
2017-12-02T02:42:02.557Z,29.05
2017-12-02T02:44:30.078Z,29.50
2017-12-02T02:46:57.598Z,35.95
2017-12-02T02:49:25.125Z,33.65
2017-12-02T02:51:52.629Z,34.92
2017-12-02T02:54:20.239Z,36.90
2017-12-02T02:56:47.747Z,28.05
2017-12-02T02:59:15.254Z,27.65
2017-12-02T03:01:42.763Z,25.15
2017-12-02T03:04:10.305Z,25.80
2017-12-02T03:06:37.827Z,26.55
2017-12-02T03:09:05.339Z,23.73
2017-12-02T03:11:32.928Z,23.23
2017-12-02T03:14:00.439Z,28.58
2017-12-02T03:16:27.948Z,40.95
2017-12-02T03:18:55.464Z,29.55
2017-12-02T03:21:22.989Z,34.38
2017-12-02T03:23:50.490Z,29.80
2017-12-02T03:26:18.259Z,29.30
2017-12-02T03:28:45.780Z,25.75
2017-12-02T03:31:13.306Z,21.73
2017-12-02T03:33:40.858Z,25.67
2017-12-02T03:36:08.362Z,28.60
2017-12-02T03:38:35.860Z,33.35
2017-12-02T03:41:03.394Z,30.50
2017-12-02T03:43:30.895Z,28.67
2017-12-02T03:45:58.406Z,30.25
2017-12-02T03:48:25.923Z,25.77
2017-12-02T03:50:53.433Z,27.00
2017-12-02T03:53:22.483Z,22.17
2017-12-02T03:55:49.989Z,26.67
2017-12-02T03:58:17.530Z,32.47
2017-12-02T04:00:45.042Z,27.10
2017-12-02T04:03:12.554Z,27.13
2017-12-02T04:05:40.069Z,26.65
2017-12-02T04:08:07.592Z,23.05
2017-12-02T04:10:35.107Z,23.87
2017-12-02T04:13:02.609Z,22.77
2017-12-02T04:15:30.151Z,23.70
2017-12-02T04:17:57.650Z,19.30
2017-12-02T04:20:25.151Z,25.02
2017-12-02T04:22:52.677Z,21.15
2017-12-02T04:25:20.201Z,21.10
2017-12-02T04:27:47.710Z,21.15
2017-12-02T04:30:15.261Z,17.12
2017-12-02T04:32:42.800Z,20.98
2017-12-02T04:35:10.314Z,22.13
2017-12-02T04:37:37.817Z,21.70
2017-12-02T04:40:05.340Z,22.17
2017-12-02T04:42:32.869Z,24.25
2017-12-02T04:45:00.485Z,22.90
2017-12-02T04:47:27.996Z,25.37
2017-12-02T04:49:56.711Z,22.65
2017-12-02T04:52:24.365Z,26.37
2017-12-02T04:54:51.882Z,25.90
2017-12-02T04:57:19.385Z,26.02
2017-12-02T04:59:46.916Z,21.60
2017-12-02T05:02:14.429Z,24.70
2017-12-02T05:04:41.946Z,24.80
2017-12-02T05:07:09.462Z,22.48
2017-12-02T05:09:36.973Z,21.62
2017-12-02T05:12:04.474Z,24.83
2017-12-02T05:14:31.977Z,24.87
2017-12-02T05:16:59.481Z,26.02
2017-12-02T05:19:26.994Z,27.08
2017-12-02T05:21:54.514Z,32.47
2017-12-02T05:24:22.017Z,24.70
2017-12-02T05:26:49.527Z,32.08
2017-12-02T05:29:17.035Z,44.17
2017-12-02T05:31:44.568Z,35.08
2017-12-02T05:34:12.069Z,37.20
2017-12-02T05:36:39.592Z,28.77
2017-12-02T05:39:07.107Z,29.25
2017-12-02T05:41:34.615Z,24.00
2017-12-02T05:44:02.138Z,24.95
2017-12-02T05:46:29.677Z,27.27
2017-12-02T05:48:57.182Z,25.45
2017-12-02T05:51:24.689Z,29.87
2017-12-02T05:53:52.195Z,24.98
2017-12-02T05:56:20.316Z,24.60
2017-12-02T05:58:47.812Z,28.52
2017-12-02T06:01:15.409Z,31.45
2017-12-02T06:03:43.719Z,26.80
2017-12-02T06:06:11.302Z,33.78
2017-12-02T06:08:38.794Z,32.00
2017-12-02T06:11:06.332Z,34.75
2017-12-02T06:13:33.847Z,44.00
2017-12-02T06:16:01.365Z,44.78
2017-12-02T06:18:28.857Z,41.85
2017-12-02T06:20:56.372Z,45.85
2017-12-02T06:23:23.897Z,37.80
2017-12-02T06:25:51.401Z,39.45
2017-12-02T06:28:18.899Z,34.22
2017-12-02T06:30:46.423Z,35.03
2017-12-02T06:33:13.944Z,32.63
2017-12-02T06:35:41.468Z,34.00
2017-12-02T06:38:08.999Z,30.77
2017-12-02T06:40:36.508Z,35.57
2017-12-02T06:43:04.082Z,36.57
2017-12-02T06:45:31.598Z,36.30
2017-12-02T06:47:59.100Z,36.43
2017-12-02T06:50:26.628Z,35.80
2017-12-02T06:52:54.142Z,43.30
2017-12-02T06:55:21.654Z,32.00
2017-12-02T06:57:49.180Z,35.47
2017-12-02T07:00:16.701Z,29.65
2017-12-02T07:02:44.217Z,31.00
2017-12-02T07:05:11.796Z,32.47
2017-12-02T07:07:39.317Z,32.78
2017-12-02T07:10:06.825Z,29.87
2017-12-02T07:12:34.335Z,34.30
2017-12-02T07:15:01.850Z,28.90
2017-12-02T07:17:29.389Z,31.10
2017-12-02T07:19:56.918Z,34.63
2017-12-02T07:22:24.446Z,32.20
2017-12-02T07:24:51.953Z,33.90
2017-12-02T07:27:19.489Z,25.98
2017-12-02T07:29:46.990Z,29.17
2017-12-02T07:32:14.501Z,27.20
2017-12-02T07:34:42.012Z,30.90
2017-12-02T07:37:09.527Z,30.67
2017-12-02T07:39:37.109Z,47.70
2017-12-02T07:42:04.608Z,52.77
2017-12-02T07:44:32.115Z,57.93
2017-12-02T07:46:59.652Z,46.33
2017-12-02T07:49:27.166Z,54.20
2017-12-02T07:51:54.696Z,50.23
2017-12-02T07:54:22.306Z,42.57
2017-12-02T07:56:49.817Z,42.53
2017-12-02T07:59:17.345Z,33.40
2017-12-02T08:01:44.863Z,37.07
2017-12-02T08:04:12.377Z,31.90
2017-12-02T08:06:39.942Z,33.20
2017-12-02T08:09:07.477Z,29.67
2017-12-02T08:11:34.967Z,32.77
2017-12-02T08:14:02.474Z,34.57
2017-12-02T08:16:29.985Z,34.30
2017-12-02T08:18:57.491Z,33.03
2017-12-02T08:21:24.980Z,33.07
2017-12-02T08:23:52.510Z,31.93
2017-12-02T08:26:20.916Z,29.70
2017-12-02T08:28:48.464Z,31.70
2017-12-02T08:34:51.433Z,34.87
2017-12-02T08:37:18.935Z,28.10
2017-12-02T08:39:46.485Z,31.73
2017-12-02T08:42:13.994Z,37.20
2017-12-02T08:44:41.538Z,35.40
2017-12-02T08:47:09.053Z,29.87
2017-12-02T08:49:36.583Z,29.30
2017-12-02T08:52:04.101Z,31.00
2017-12-02T08:54:31.618Z,30.37
2017-12-02T08:56:59.139Z,32.23
2017-12-02T08:59:26.647Z,26.83
2017-12-02T09:01:54.158Z,31.27
2017-12-02T09:04:21.650Z,28.30
2017-12-02T09:06:49.146Z,28.27
2017-12-02T09:09:16.664Z,26.10
2017-12-02T09:11:44.174Z,27.73
2017-12-02T09:14:11.674Z,28.30
2017-12-02T09:16:39.184Z,28.87
2017-12-02T09:19:06.694Z,28.97
2017-12-02T09:21:34.220Z,35.43
2017-12-02T09:24:01.737Z,27.20
2017-12-02T09:26:29.252Z,22.27
2017-12-02T09:28:57.953Z,35.77
2017-12-02T09:31:25.449Z,32.53
2017-12-02T09:33:52.953Z,23.27
2017-12-02T09:36:20.475Z,22.30
2017-12-02T09:38:47.998Z,24.77
2017-12-02T09:41:15.494Z,24.80
2017-12-02T09:43:43.012Z,26.17
2017-12-02T09:46:10.517Z,26.73
2017-12-02T09:48:38.081Z,24.97
2017-12-02T09:51:05.621Z,25.53
2017-12-02T09:53:33.139Z,22.00
2017-12-02T09:56:00.645Z,21.47
2017-12-02T09:58:28.148Z,28.77
2017-12-02T10:00:55.672Z,24.63
2017-12-02T10:03:23.194Z,27.80
2017-12-02T10:05:50.697Z,20.77
2017-12-02T10:08:18.235Z,21.40
2017-12-02T10:10:45.803Z,25.17
2017-12-02T10:13:13.309Z,20.80
2017-12-02T10:15:40.817Z,20.53
2017-12-02T10:18:08.322Z,25.43
2017-12-02T10:20:35.840Z,21.90
2017-12-02T10:23:03.373Z,21.53
2017-12-02T10:25:30.930Z,24.20
2017-12-02T10:27:58.529Z,20.20
2017-12-02T10:30:26.040Z,24.30
2017-12-02T10:32:53.574Z,23.53
2017-12-02T10:35:21.077Z,20.40
2017-12-02T10:37:48.585Z,22.40
2017-12-02T10:40:16.092Z,25.00
2017-12-02T10:42:43.613Z,22.73
2017-12-02T10:45:11.121Z,21.43
2017-12-02T10:47:38.640Z,21.20
2017-12-02T10:50:06.148Z,23.07
2017-12-02T10:52:33.659Z,23.07
2017-12-02T10:55:01.213Z,18.80
2017-12-02T10:57:28.705Z,22.90
2017-12-02T10:59:56.213Z,19.97
2017-12-02T11:02:23.723Z,20.77
2017-12-02T11:04:51.252Z,17.90
2017-12-02T11:07:18.805Z,19.80
2017-12-02T11:09:46.339Z,70.13
2017-12-02T11:12:13.869Z,19.03
2017-12-02T11:14:41.370Z,19.37
2017-12-02T11:17:08.871Z,22.03
2017-12-02T11:19:36.400Z,16.97
2017-12-02T11:22:03.984Z,21.80
2017-12-02T11:24:31.446Z,16.70
2017-12-02T11:26:58.953Z,16.90
2017-12-02T11:29:26.481Z,23.30
2017-12-02T11:31:54.004Z,17.40
2017-12-02T11:34:21.517Z,15.93
2017-12-02T11:36:49.062Z,17.70
2017-12-02T11:39:16.566Z,16.70
2017-12-02T11:41:44.179Z,16.17
2017-12-02T11:44:11.685Z,16.20
2017-12-02T11:46:39.209Z,20.40
2017-12-02T11:49:06.701Z,18.80
2017-12-02T11:51:34.227Z,16.40
2017-12-02T11:54:01.738Z,20.57
2017-12-02T11:56:29.326Z,15.00
2017-12-02T11:58:56.817Z,16.57
2017-12-02T12:01:24.357Z,18.17
2017-12-02T12:03:51.855Z,17.50
2017-12-02T12:06:19.360Z,18.00
2017-12-02T12:08:46.876Z,12.90
2017-12-02T12:11:14.389Z,14.63
2017-12-02T12:13:41.885Z,13.70
2017-12-02T12:16:10.388Z,23.20
2017-12-02T12:18:37.908Z,19.27
2017-12-02T12:21:05.517Z,14.50
2017-12-02T12:23:33.018Z,15.87
2017-12-02T12:26:00.707Z,15.77
2017-12-02T12:28:28.204Z,19.20
2017-12-02T12:30:55.779Z,20.20
2017-12-02T12:33:23.312Z,22.93
2017-12-02T12:35:50.820Z,26.60
2017-12-02T12:38:18.316Z,23.63
2017-12-02T12:40:45.849Z,17.20
2017-12-02T12:43:13.367Z,24.80
2017-12-02T12:45:40.893Z,60.30
2017-12-02T12:48:08.404Z,25.50
2017-12-02T12:50:35.922Z,18.80
2017-12-02T12:53:03.436Z,20.10
2017-12-02T12:55:30.956Z,16.00
2017-12-02T12:57:58.486Z,18.77
2017-12-02T13:00:26.878Z,17.07
2017-12-02T13:02:54.424Z,19.50
2017-12-02T13:05:21.932Z,18.27
2017-12-02T13:07:49.549Z,17.20
2017-12-02T13:10:17.055Z,19.03
2017-12-02T13:12:44.559Z,18.80
2017-12-02T13:15:12.076Z,19.37
2017-12-02T13:17:39.573Z,18.20
2017-12-02T13:20:07.075Z,19.37
2017-12-02T13:22:34.627Z,20.87
2017-12-02T13:25:02.137Z,18.07
2017-12-02T13:27:29.649Z,16.20
2017-12-02T13:29:57.176Z,24.43
2017-12-02T13:32:24.700Z,22.37
2017-12-02T13:34:52.205Z,20.40
2017-12-02T13:37:19.713Z,16.13
2017-12-02T13:39:47.255Z,16.83
2017-12-02T13:42:14.890Z,20.53
2017-12-02T13:44:42.406Z,20.87
2017-12-02T13:47:09.914Z,23.67
2017-12-02T13:49:37.566Z,18.60
2017-12-02T13:52:05.067Z,21.77
2017-12-02T13:54:32.608Z,21.07
2017-12-02T13:57:00.114Z,24.83
2017-12-02T13:59:27.639Z,21.03
2017-12-02T14:01:55.153Z,18.43
2017-12-02T14:04:22.660Z,28.33
2017-12-02T14:06:50.157Z,21.17
2017-12-02T14:09:17.678Z,22.43
2017-12-02T14:11:45.217Z,30.70
2017-12-02T14:14:12.731Z,25.30
2017-12-02T14:16:40.236Z,18.57
2017-12-02T14:19:07.750Z,20.07
2017-12-02T14:21:35.285Z,20.63
2017-12-02T14:24:02.785Z,20.53
2017-12-02T14:26:30.305Z,18.13
2017-12-02T14:28:57.811Z,20.40
2017-12-02T14:31:25.334Z,19.97
2017-12-02T14:33:52.842Z,20.83
2017-12-02T14:36:20.360Z,18.97
2017-12-02T14:38:47.882Z,20.17
2017-12-02T14:41:15.401Z,21.00
2017-12-02T14:43:42.920Z,25.03
2017-12-02T14:46:10.430Z,21.03
2017-12-02T14:48:37.945Z,17.87
2017-12-02T14:51:05.473Z,18.33
2017-12-02T14:53:33.085Z,18.53
2017-12-02T14:56:00.607Z,22.90
2017-12-02T14:58:28.127Z,18.07
2017-12-02T15:00:55.638Z,32.13
2017-12-02T15:03:23.132Z,15.30
2017-12-02T15:05:50.656Z,18.23
2017-12-02T15:08:18.149Z,17.63
2017-12-02T15:10:45.652Z,20.20
2017-12-02T15:13:13.196Z,23.83
2017-12-02T15:15:40.717Z,16.93
2017-12-02T15:18:08.367Z,17.77
2017-12-02T15:20:35.917Z,21.00
2017-12-02T15:23:03.468Z,22.97
2017-12-02T15:25:31.010Z,86.80
2017-12-02T15:27:58.540Z,20.30
2017-12-02T15:30:26.096Z,18.67
2017-12-02T15:32:53.609Z,23.53
2017-12-02T15:35:21.153Z,23.37
2017-12-02T15:37:48.749Z,21.63
2017-12-02T15:40:16.252Z,23.07
2017-12-02T15:42:43.771Z,24.60
2017-12-02T15:45:11.301Z,20.10
2017-12-02T15:47:38.822Z,18.80
2017-12-02T15:50:07.043Z,21.30
2017-12-02T15:52:34.554Z,22.10
2017-12-02T15:55:02.072Z,25.20
2017-12-02T15:57:29.604Z,22.83
2017-12-02T15:59:57.107Z,27.07
2017-12-02T16:02:24.634Z,25.13
2017-12-02T16:04:52.137Z,25.40
2017-12-02T16:07:19.641Z,20.90
2017-12-02T16:09:47.210Z,24.73
2017-12-02T16:12:14.748Z,23.70
2017-12-02T16:14:42.275Z,27.90
2017-12-02T16:17:09.779Z,32.03
2017-12-02T16:19:37.278Z,25.23
2017-12-02T16:22:04.778Z,26.60
2017-12-02T16:24:32.622Z,21.97
2017-12-02T16:27:00.145Z,22.47
2017-12-02T16:29:27.657Z,24.50
2017-12-02T16:31:55.258Z,21.90
2017-12-02T16:34:22.936Z,21.53
2017-12-02T16:36:50.459Z,20.20
2017-12-02T16:39:17.971Z,21.40
2017-12-02T16:41:45.521Z,19.13
2017-12-02T16:44:13.047Z,18.50
2017-12-02T16:46:40.554Z,22.43
2017-12-02T16:49:08.085Z,19.80
2017-12-02T16:51:35.623Z,19.60
2017-12-02T16:54:03.129Z,18.50
2017-12-02T16:56:30.641Z,22.37
2017-12-02T16:58:58.245Z,20.23
2017-12-02T17:01:25.920Z,22.20
2017-12-02T17:03:54.239Z,19.33
2017-12-02T17:06:21.819Z,20.93
2017-12-02T17:08:49.677Z,20.67
2017-12-02T17:11:17.192Z,25.50
2017-12-02T17:13:44.719Z,23.10
2017-12-02T17:16:12.339Z,25.40
2017-12-02T17:18:39.859Z,23.97
2017-12-02T17:21:07.481Z,21.47
2017-12-02T17:23:35.015Z,19.33
2017-12-02T17:26:02.580Z,22.23
2017-12-02T17:28:30.080Z,27.20
2017-12-02T17:30:57.622Z,26.13
2017-12-02T17:33:25.119Z,20.33
2017-12-02T17:35:52.663Z,21.83
2017-12-02T17:38:20.182Z,22.77
2017-12-02T17:40:47.675Z,25.10
2017-12-02T17:43:15.177Z,23.80
2017-12-02T17:45:42.695Z,27.63
2017-12-02T17:48:17.020Z,22.87
2017-12-02T17:50:44.573Z,26.27
2017-12-02T17:53:12.076Z,25.67
2017-12-02T17:55:39.611Z,24.10
2017-12-02T17:58:07.119Z,25.00
2017-12-02T18:00:34.632Z,28.67
2017-12-02T18:03:02.144Z,24.77
2017-12-02T18:05:29.663Z,24.60
2017-12-02T18:07:57.188Z,32.73
2017-12-02T18:10:24.705Z,29.17
2017-12-02T18:12:52.208Z,27.07
2017-12-02T18:15:19.836Z,22.77
2017-12-02T18:17:47.470Z,25.27
2017-12-02T18:20:14.978Z,27.57
2017-12-02T18:22:42.505Z,31.17
2017-12-02T18:25:10.006Z,25.80
2017-12-02T18:27:37.570Z,34.93
2017-12-02T18:30:05.082Z,26.30
2017-12-02T18:32:32.598Z,24.27
2017-12-02T18:35:00.078Z,24.83
2017-12-02T18:37:27.582Z,21.50
2017-12-02T18:39:55.088Z,24.40
2017-12-02T18:42:22.596Z,28.03
2017-12-02T18:44:50.087Z,24.67
2017-12-02T18:47:17.614Z,26.00
2017-12-02T18:49:45.138Z,26.63
2017-12-02T18:52:12.635Z,25.93
2017-12-02T18:54:40.141Z,27.83
2017-12-02T18:57:07.669Z,29.00
2017-12-02T18:59:35.197Z,28.17
2017-12-02T19:02:02.786Z,25.83
2017-12-02T19:04:30.292Z,26.87
2017-12-02T19:06:57.804Z,28.13
2017-12-02T19:09:25.351Z,21.40
2017-12-02T19:11:52.874Z,24.60
2017-12-02T19:14:20.380Z,26.80
2017-12-02T19:16:47.888Z,29.23
2017-12-02T19:19:15.400Z,22.43
2017-12-02T19:21:42.920Z,23.60
2017-12-02T19:24:10.448Z,24.27
2017-12-02T19:26:37.959Z,29.90
2017-12-02T19:29:05.512Z,26.40
2017-12-02T19:31:33.050Z,26.07
2017-12-02T19:34:00.556Z,20.20
2017-12-02T19:36:28.116Z,22.97
2017-12-02T19:38:55.629Z,23.87
2017-12-02T19:41:23.189Z,25.30
2017-12-02T19:43:50.705Z,20.40
2017-12-02T19:46:18.207Z,21.50
2017-12-02T19:48:45.720Z,22.13
2017-12-02T19:51:13.267Z,24.33
2017-12-02T19:53:40.769Z,21.73
2017-12-02T19:56:08.288Z,22.63
2017-12-02T19:58:35.811Z,21.03
2017-12-02T20:01:03.314Z,20.03
2017-12-02T20:03:30.839Z,22.13
2017-12-02T20:05:58.458Z,20.23
2017-12-02T20:08:25.977Z,20.80
2017-12-02T20:10:53.476Z,19.33
2017-12-02T20:13:20.989Z,17.90
2017-12-02T20:15:48.510Z,15.83
2017-12-02T20:18:16.041Z,14.33
2017-12-02T20:20:43.543Z,17.37
2017-12-02T20:23:11.054Z,21.43
2017-12-02T20:25:38.652Z,16.80
2017-12-02T20:28:06.260Z,15.40
2017-12-02T20:30:33.782Z,17.50
2017-12-02T20:33:01.303Z,18.13
2017-12-02T20:35:28.948Z,14.87
2017-12-02T20:37:56.480Z,21.30
2017-12-02T20:40:23.989Z,17.60
2017-12-02T20:42:51.535Z,20.53
2017-12-02T20:45:19.058Z,22.40
2017-12-02T20:47:46.590Z,19.37
2017-12-02T20:50:14.091Z,19.07
2017-12-02T20:52:41.613Z,19.17
2017-12-02T20:55:09.125Z,22.33
2017-12-02T20:57:36.632Z,18.50
2017-12-02T21:00:04.299Z,18.63
2017-12-02T21:02:31.806Z,17.90
2017-12-02T21:04:59.329Z,16.50
2017-12-02T21:07:26.875Z,14.70
2017-12-02T21:09:54.390Z,21.20
2017-12-02T21:12:21.922Z,23.90
2017-12-02T21:14:49.440Z,21.90
2017-12-02T21:17:17.075Z,13.43
2017-12-02T21:19:44.585Z,18.40
2017-12-02T21:22:12.114Z,15.73
2017-12-02T21:24:39.628Z,18.73
2017-12-02T21:27:07.142Z,14.10
2017-12-02T21:29:34.655Z,15.43
2017-12-02T21:32:02.194Z,14.00
2017-12-02T21:34:29.698Z,14.80
2017-12-02T21:36:57.224Z,15.10
2017-12-02T21:39:24.720Z,15.20
2017-12-02T21:41:52.230Z,16.03
2017-12-02T21:44:19.747Z,15.80
2017-12-02T21:46:47.249Z,19.03
2017-12-02T21:49:14.754Z,18.57
2017-12-02T21:51:42.250Z,15.40
2017-12-02T21:54:09.787Z,14.13
2017-12-02T21:56:37.311Z,14.47
2017-12-02T21:59:04.809Z,13.37
2017-12-02T22:01:32.313Z,13.43
2017-12-02T22:03:59.819Z,11.07
2017-12-02T22:06:27.342Z,13.00
2017-12-02T22:08:54.855Z,13.03
2017-12-02T22:11:22.354Z,12.30
2017-12-02T22:13:49.884Z,15.27
2017-12-02T22:16:17.409Z,13.07
2017-12-02T22:18:44.925Z,11.73
2017-12-02T22:21:12.448Z,14.97
2017-12-02T22:23:39.956Z,14.77
2017-12-02T22:26:07.489Z,14.73
2017-12-02T22:28:34.998Z,13.70
2017-12-02T22:31:02.607Z,15.03
2017-12-02T22:33:30.149Z,15.23
2017-12-02T22:35:57.649Z,13.50
2017-12-02T22:38:25.163Z,15.53
2017-12-02T22:40:52.669Z,14.00
2017-12-02T22:43:20.195Z,15.83
2017-12-02T22:45:47.726Z,20.33
2017-12-02T22:48:15.368Z,14.17
2017-12-02T22:50:42.881Z,16.33
2017-12-02T22:53:10.386Z,13.60
2017-12-02T22:55:37.932Z,12.83
2017-12-02T22:58:05.431Z,15.80
2017-12-02T23:00:38.641Z,13.70
2017-12-02T23:03:06.146Z,14.47
2017-12-02T23:05:33.675Z,11.60
2017-12-02T23:08:01.173Z,16.83
2017-12-02T23:10:28.701Z,14.57
2017-12-02T23:12:56.229Z,14.10
2017-12-02T23:15:23.768Z,14.83
2017-12-02T23:17:51.258Z,13.80
2017-12-02T23:20:18.777Z,14.03
2017-12-02T23:22:46.274Z,13.27
2017-12-02T23:25:13.763Z,18.43
2017-12-02T23:27:41.292Z,13.73
2017-12-02T23:30:08.808Z,14.67
2017-12-02T23:32:36.322Z,15.27
2017-12-02T23:35:03.837Z,17.20
2017-12-02T23:37:31.361Z,17.63
2017-12-02T23:39:58.911Z,16.07
2017-12-02T23:42:26.466Z,14.27
2017-12-02T23:44:53.996Z,14.13
2017-12-02T23:47:21.489Z,13.40
2017-12-02T23:49:48.991Z,16.73
2017-12-02T23:52:16.501Z,14.67
2017-12-02T23:54:44.023Z,13.43
2017-12-02T23:57:11.521Z,15.30
2017-12-02T23:59:39.069Z,15.30
